sensor_id;sensor_type;location;lat;lon;timestamp;P1;durP1;ratioP1;P2;durP2;ratioP2
33836;SDS011;20140;49.356;8.812;2023-02-15T00:01:43;29.83;;;17.67;;
33836;SDS011;20140;49.356;8.812;2023-02-15T00:04:09;28.27;;;17.85;;
33836;SDS011;20140;49.356;8.812;2023-02-15T00:06:38;28.10;;;17.20;;
33836;SDS011;20140;49.356;8.812;2023-02-15T00:09:04;30.40;;;19.00;;
33836;SDS011;20140;49.356;8.812;2023-02-15T00:11:30;29.30;;;19.07;;
33836;SDS011;20140;49.356;8.812;2023-02-15T00:14:09;29.77;;;18.02;;
33836;SDS011;20140;49.356;8.812;2023-02-15T00:16:39;27.98;;;17.38;;
33836;SDS011;20140;49.356;8.812;2023-02-15T00:19:06;30.92;;;20.10;;
33836;SDS011;20140;49.356;8.812;2023-02-15T00:21:33;29.42;;;18.63;;
33836;SDS011;20140;49.356;8.812;2023-02-15T00:24:01;28.50;;;17.83;;
33836;SDS011;20140;49.356;8.812;2023-02-15T00:26:28;28.17;;;16.67;;
33836;SDS011;20140;49.356;8.812;2023-02-15T00:28:54;26.58;;;16.55;;
33836;SDS011;20140;49.356;8.812;2023-02-15T00:31:21;26.20;;;16.48;;
33836;SDS011;20140;49.356;8.812;2023-02-15T00:33:46;27.85;;;17.52;;
33836;SDS011;20140;49.356;8.812;2023-02-15T00:36:13;25.75;;;17.50;;
33836;SDS011;20140;49.356;8.812;2023-02-15T00:38:39;28.60;;;18.38;;
33836;SDS011;20140;49.356;8.812;2023-02-15T00:41:05;27.92;;;19.40;;
33836;SDS011;20140;49.356;8.812;2023-02-15T00:43:32;28.67;;;18.30;;
33836;SDS011;20140;49.356;8.812;2023-02-15T00:45:58;31.95;;;18.58;;
33836;SDS011;20140;49.356;8.812;2023-02-15T00:48:25;28.77;;;18.70;;
33836;SDS011;20140;49.356;8.812;2023-02-15T00:50:52;27.90;;;17.30;;
33836;SDS011;20140;49.356;8.812;2023-02-15T00:53:20;32.70;;;17.30;;
33836;SDS011;20140;49.356;8.812;2023-02-15T00:55:46;24.58;;;16.92;;
33836;SDS011;20140;49.356;8.812;2023-02-15T00:58:12;28.52;;;18.63;;
33836;SDS011;20140;49.356;8.812;2023-02-15T01:00:38;31.10;;;17.77;;
33836;SDS011;20140;49.356;8.812;2023-02-15T01:03:04;30.17;;;19.80;;
33836;SDS011;20140;49.356;8.812;2023-02-15T01:05:30;29.38;;;18.80;;
33836;SDS011;20140;49.356;8.812;2023-02-15T01:07:57;30.65;;;19.33;;
33836;SDS011;20140;49.356;8.812;2023-02-15T01:10:23;26.97;;;17.53;;
33836;SDS011;20140;49.356;8.812;2023-02-15T01:12:52;27.67;;;16.83;;
33836;SDS011;20140;49.356;8.812;2023-02-15T01:15:18;29.35;;;19.13;;
33836;SDS011;20140;49.356;8.812;2023-02-15T01:17:43;30.43;;;19.33;;
33836;SDS011;20140;49.356;8.812;2023-02-15T01:20:16;32.55;;;20.33;;
33836;SDS011;20140;49.356;8.812;2023-02-15T01:22:49;30.35;;;19.67;;
33836;SDS011;20140;49.356;8.812;2023-02-15T01:25:15;34.30;;;19.95;;
33836;SDS011;20140;49.356;8.812;2023-02-15T01:27:42;32.90;;;20.57;;
33836;SDS011;20140;49.356;8.812;2023-02-15T01:30:08;33.22;;;19.98;;
33836;SDS011;20140;49.356;8.812;2023-02-15T01:32:34;33.23;;;19.57;;
33836;SDS011;20140;49.356;8.812;2023-02-15T01:34:59;29.33;;;19.13;;
33836;SDS011;20140;49.356;8.812;2023-02-15T01:37:25;34.07;;;18.83;;
33836;SDS011;20140;49.356;8.812;2023-02-15T01:39:50;32.33;;;18.43;;
33836;SDS011;20140;49.356;8.812;2023-02-15T01:42:20;32.93;;;19.30;;
33836;SDS011;20140;49.356;8.812;2023-02-15T01:47:24;31.23;;;18.25;;
33836;SDS011;20140;49.356;8.812;2023-02-15T01:50:07;33.00;;;19.00;;
33836;SDS011;20140;49.356;8.812;2023-02-15T01:52:40;37.50;;;21.15;;
33836;SDS011;20140;49.356;8.812;2023-02-15T01:55:22;35.88;;;21.45;;
33836;SDS011;20140;49.356;8.812;2023-02-15T01:57:49;34.45;;;19.63;;
33836;SDS011;20140;49.356;8.812;2023-02-15T02:00:16;30.23;;;19.33;;
33836;SDS011;20140;49.356;8.812;2023-02-15T02:02:42;32.20;;;19.02;;
33836;SDS011;20140;49.356;8.812;2023-02-15T02:05:10;29.15;;;18.23;;
33836;SDS011;20140;49.356;8.812;2023-02-15T02:07:38;30.23;;;18.05;;
33836;SDS011;20140;49.356;8.812;2023-02-15T02:10:06;31.58;;;19.35;;
33836;SDS011;20140;49.356;8.812;2023-02-15T02:12:33;27.88;;;18.10;;
33836;SDS011;20140;49.356;8.812;2023-02-15T02:15:00;31.08;;;18.95;;
33836;SDS011;20140;49.356;8.812;2023-02-15T02:20:25;30.75;;;17.67;;
33836;SDS011;20140;49.356;8.812;2023-02-15T02:23:21;30.65;;;18.10;;
33836;SDS011;20140;49.356;8.812;2023-02-15T02:34:51;33.78;;;19.40;;
33836;SDS011;20140;49.356;8.812;2023-02-15T02:37:31;32.35;;;18.35;;
33836;SDS011;20140;49.356;8.812;2023-02-15T02:40:10;32.28;;;18.13;;
33836;SDS011;20140;49.356;8.812;2023-02-15T02:42:51;26.80;;;17.80;;
33836;SDS011;20140;49.356;8.812;2023-02-15T02:45:28;28.30;;;17.83;;
33836;SDS011;20140;49.356;8.812;2023-02-15T02:48:13;28.00;;;16.97;;
33836;SDS011;20140;49.356;8.812;2023-02-15T02:50:42;32.20;;;19.02;;
33836;SDS011;20140;49.356;8.812;2023-02-15T02:53:08;34.97;;;18.43;;
33836;SDS011;20140;49.356;8.812;2023-02-15T02:55:35;30.98;;;18.80;;
33836;SDS011;20140;49.356;8.812;2023-02-15T03:00:57;35.47;;;19.58;;
33836;SDS011;20140;49.356;8.812;2023-02-15T03:03:28;34.03;;;20.10;;
33836;SDS011;20140;49.356;8.812;2023-02-15T03:05:58;34.40;;;19.42;;
33836;SDS011;20140;49.356;8.812;2023-02-15T03:08:34;32.20;;;19.55;;
33836;SDS011;20140;49.356;8.812;2023-02-15T03:11:03;33.80;;;19.67;;
33836;SDS011;20140;49.356;8.812;2023-02-15T03:13:29;31.92;;;18.95;;
33836;SDS011;20140;49.356;8.812;2023-02-15T03:15:55;32.40;;;18.48;;
33836;SDS011;20140;49.356;8.812;2023-02-15T03:18:44;33.75;;;20.15;;
33836;SDS011;20140;49.356;8.812;2023-02-15T03:21:17;33.42;;;19.23;;
33836;SDS011;20140;49.356;8.812;2023-02-15T03:23:48;30.10;;;19.38;;
33836;SDS011;20140;49.356;8.812;2023-02-15T03:26:17;34.10;;;19.95;;
33836;SDS011;20140;49.356;8.812;2023-02-15T03:28:45;32.47;;;20.63;;
33836;SDS011;20140;49.356;8.812;2023-02-15T03:31:14;35.67;;;20.42;;
33836;SDS011;20140;49.356;8.812;2023-02-15T03:33:44;34.92;;;19.35;;
33836;SDS011;20140;49.356;8.812;2023-02-15T03:36:17;30.30;;;18.98;;
33836;SDS011;20140;49.356;8.812;2023-02-15T03:38:59;32.38;;;19.77;;
33836;SDS011;20140;49.356;8.812;2023-02-15T03:41:38;34.60;;;20.55;;
33836;SDS011;20140;49.356;8.812;2023-02-15T03:44:21;34.20;;;21.60;;
33836;SDS011;20140;49.356;8.812;2023-02-15T03:46:53;35.57;;;20.43;;
33836;SDS011;20140;49.356;8.812;2023-02-15T03:49:27;32.88;;;19.60;;
33836;SDS011;20140;49.356;8.812;2023-02-15T03:51:54;29.15;;;20.30;;
33836;SDS011;20140;49.356;8.812;2023-02-15T03:54:26;31.08;;;18.15;;
33836;SDS011;20140;49.356;8.812;2023-02-15T03:57:21;33.10;;;19.50;;
33836;SDS011;20140;49.356;8.812;2023-02-15T04:05:24;32.57;;;19.37;;
33836;SDS011;20140;49.356;8.812;2023-02-15T04:07:49;33.40;;;19.75;;
33836;SDS011;20140;49.356;8.812;2023-02-15T04:10:15;35.57;;;20.03;;
33836;SDS011;20140;49.356;8.812;2023-02-15T04:12:59;35.85;;;19.95;;
33836;SDS011;20140;49.356;8.812;2023-02-15T04:15:25;35.00;;;19.90;;
33836;SDS011;20140;49.356;8.812;2023-02-15T04:18:09;37.65;;;21.90;;
33836;SDS011;20140;49.356;8.812;2023-02-15T04:20:34;34.07;;;20.53;;
33836;SDS011;20140;49.356;8.812;2023-02-15T04:23:19;34.80;;;21.73;;
33836;SDS011;20140;49.356;8.812;2023-02-15T04:26:03;32.80;;;19.80;;
33836;SDS011;20140;49.356;8.812;2023-02-15T04:28:29;35.55;;;21.55;;
33836;SDS011;20140;49.356;8.812;2023-02-15T04:30:55;37.95;;;22.00;;
33836;SDS011;20140;49.356;8.812;2023-02-15T04:33:21;34.33;;;20.00;;
33836;SDS011;20140;49.356;8.812;2023-02-15T04:35:46;35.97;;;20.30;;
33836;SDS011;20140;49.356;8.812;2023-02-15T04:38:12;35.37;;;21.10;;
33836;SDS011;20140;49.356;8.812;2023-02-15T04:40:37;38.50;;;20.60;;
33836;SDS011;20140;49.356;8.812;2023-02-15T04:43:03;40.73;;;21.47;;
33836;SDS011;20140;49.356;8.812;2023-02-15T04:45:28;42.70;;;21.87;;
33836;SDS011;20140;49.356;8.812;2023-02-15T04:47:54;39.93;;;19.83;;
33836;SDS011;20140;49.356;8.812;2023-02-15T04:50:19;34.30;;;21.70;;
33836;SDS011;20140;49.356;8.812;2023-02-15T04:52:45;37.97;;;21.23;;
33836;SDS011;20140;49.356;8.812;2023-02-15T04:55:11;37.45;;;20.35;;
33836;SDS011;20140;49.356;8.812;2023-02-15T04:57:37;38.25;;;21.95;;
33836;SDS011;20140;49.356;8.812;2023-02-15T05:00:03;38.13;;;21.77;;
33836;SDS011;20140;49.356;8.812;2023-02-15T05:02:29;38.85;;;21.42;;
33836;SDS011;20140;49.356;8.812;2023-02-15T05:04:54;41.07;;;22.87;;
33836;SDS011;20140;49.356;8.812;2023-02-15T05:07:20;32.23;;;20.60;;
33836;SDS011;20140;49.356;8.812;2023-02-15T05:09:45;35.43;;;21.07;;
33836;SDS011;20140;49.356;8.812;2023-02-15T05:12:11;43.03;;;24.07;;
33836;SDS011;20140;49.356;8.812;2023-02-15T05:14:36;41.83;;;23.13;;
33836;SDS011;20140;49.356;8.812;2023-02-15T05:17:02;39.60;;;22.30;;
33836;SDS011;20140;49.356;8.812;2023-02-15T05:19:28;43.03;;;25.13;;
33836;SDS011;20140;49.356;8.812;2023-02-15T05:21:53;42.17;;;24.40;;
33836;SDS011;20140;49.356;8.812;2023-02-15T05:24:19;44.30;;;26.03;;
33836;SDS011;20140;49.356;8.812;2023-02-15T05:27:03;47.88;;;25.20;;
33836;SDS011;20140;49.356;8.812;2023-02-15T05:29:48;50.78;;;27.80;;
33836;SDS011;20140;49.356;8.812;2023-02-15T05:32:13;49.20;;;26.40;;
33836;SDS011;20140;49.356;8.812;2023-02-15T05:34:39;41.55;;;25.17;;
33836;SDS011;20140;49.356;8.812;2023-02-15T05:37:04;44.40;;;26.55;;
33836;SDS011;20140;49.356;8.812;2023-02-15T05:39:30;43.65;;;26.75;;
33836;SDS011;20140;49.356;8.812;2023-02-15T05:41:58;46.20;;;26.52;;
33836;SDS011;20140;49.356;8.812;2023-02-15T05:44:24;49.72;;;27.40;;
33836;SDS011;20140;49.356;8.812;2023-02-15T05:46:50;45.15;;;26.90;;
33836;SDS011;20140;49.356;8.812;2023-02-15T05:49:16;43.77;;;25.50;;
33836;SDS011;20140;49.356;8.812;2023-02-15T05:51:41;47.03;;;25.53;;
33836;SDS011;20140;49.356;8.812;2023-02-15T05:54:07;43.43;;;26.20;;
33836;SDS011;20140;49.356;8.812;2023-02-15T05:56:32;51.10;;;28.70;;
33836;SDS011;20140;49.356;8.812;2023-02-15T05:58:58;45.40;;;26.13;;
33836;SDS011;20140;49.356;8.812;2023-02-15T06:01:23;45.13;;;26.60;;
33836;SDS011;20140;49.356;8.812;2023-02-15T06:03:49;45.43;;;26.13;;
33836;SDS011;20140;49.356;8.812;2023-02-15T06:06:15;47.00;;;27.45;;
33836;SDS011;20140;49.356;8.812;2023-02-15T06:08:40;46.65;;;26.45;;
33836;SDS011;20140;49.356;8.812;2023-02-15T06:11:06;44.63;;;25.07;;
33836;SDS011;20140;49.356;8.812;2023-02-15T06:13:32;44.35;;;24.02;;
33836;SDS011;20140;49.356;8.812;2023-02-15T06:15:59;40.00;;;23.40;;
33836;SDS011;20140;49.356;8.812;2023-02-15T06:18:24;38.30;;;22.17;;
33836;SDS011;20140;49.356;8.812;2023-02-15T06:20:50;42.83;;;25.23;;
33836;SDS011;20140;49.356;8.812;2023-02-15T06:23:16;38.65;;;23.83;;
33836;SDS011;20140;49.356;8.812;2023-02-15T06:25:42;37.90;;;22.88;;
33836;SDS011;20140;49.356;8.812;2023-02-15T06:28:09;40.22;;;23.58;;
33836;SDS011;20140;49.356;8.812;2023-02-15T06:30:34;41.22;;;22.98;;
33836;SDS011;20140;49.356;8.812;2023-02-15T06:33:00;39.85;;;24.38;;
33836;SDS011;20140;49.356;8.812;2023-02-15T06:35:25;40.35;;;22.38;;
33836;SDS011;20140;49.356;8.812;2023-02-15T06:37:51;40.30;;;22.52;;
33836;SDS011;20140;49.356;8.812;2023-02-15T06:40:16;41.33;;;23.70;;
33836;SDS011;20140;49.356;8.812;2023-02-15T06:42:42;40.30;;;24.30;;
33836;SDS011;20140;49.356;8.812;2023-02-15T06:45:08;42.40;;;23.98;;
33836;SDS011;20140;49.356;8.812;2023-02-15T06:47:34;42.17;;;22.85;;
33836;SDS011;20140;49.356;8.812;2023-02-15T06:50:00;36.92;;;22.40;;
33836;SDS011;20140;49.356;8.812;2023-02-15T06:52:25;34.45;;;21.70;;
33836;SDS011;20140;49.356;8.812;2023-02-15T06:54:51;37.25;;;22.80;;
33836;SDS011;20140;49.356;8.812;2023-02-15T06:57:16;39.75;;;23.48;;
33836;SDS011;20140;49.356;8.812;2023-02-15T06:59:42;40.33;;;25.03;;
33836;SDS011;20140;49.356;8.812;2023-02-15T07:02:13;44.17;;;24.80;;
33836;SDS011;20140;49.356;8.812;2023-02-15T07:04:39;41.85;;;24.48;;
33836;SDS011;20140;49.356;8.812;2023-02-15T07:07:07;42.13;;;25.70;;
33836;SDS011;20140;49.356;8.812;2023-02-15T07:09:34;45.03;;;25.35;;
33836;SDS011;20140;49.356;8.812;2023-02-15T07:11:59;42.20;;;25.33;;
33836;SDS011;20140;49.356;8.812;2023-02-15T07:14:43;41.17;;;24.98;;
33836;SDS011;20140;49.356;8.812;2023-02-15T07:17:09;42.17;;;24.87;;
33836;SDS011;20140;49.356;8.812;2023-02-15T07:19:34;42.53;;;25.57;;
33836;SDS011;20140;49.356;8.812;2023-02-15T07:22:00;41.17;;;24.73;;
33836;SDS011;20140;49.356;8.812;2023-02-15T07:24:25;42.93;;;25.57;;
33836;SDS011;20140;49.356;8.812;2023-02-15T07:26:51;39.80;;;25.10;;
33836;SDS011;20140;49.356;8.812;2023-02-15T07:29:16;39.87;;;24.30;;
33836;SDS011;20140;49.356;8.812;2023-02-15T07:31:42;42.13;;;25.33;;
33836;SDS011;20140;49.356;8.812;2023-02-15T07:34:10;45.83;;;27.02;;
33836;SDS011;20140;49.356;8.812;2023-02-15T07:36:35;45.33;;;25.90;;
33836;SDS011;20140;49.356;8.812;2023-02-15T07:39:02;41.75;;;23.73;;
33836;SDS011;20140;49.356;8.812;2023-02-15T07:41:27;37.42;;;22.40;;
33836;SDS011;20140;49.356;8.812;2023-02-15T07:43:53;40.03;;;24.60;;
33836;SDS011;20140;49.356;8.812;2023-02-15T07:46:19;39.87;;;22.43;;
33836;SDS011;20140;49.356;8.812;2023-02-15T07:48:45;39.85;;;22.92;;
33836;SDS011;20140;49.356;8.812;2023-02-15T07:51:12;36.03;;;21.33;;
33836;SDS011;20140;49.356;8.812;2023-02-15T07:53:38;39.17;;;23.80;;
33836;SDS011;20140;49.356;8.812;2023-02-15T07:56:09;40.17;;;24.40;;
33836;SDS011;20140;49.356;8.812;2023-02-15T07:58:36;36.55;;;22.92;;
33836;SDS011;20140;49.356;8.812;2023-02-15T08:03:50;37.50;;;22.35;;
33836;SDS011;20140;49.356;8.812;2023-02-15T08:06:17;40.95;;;24.08;;
33836;SDS011;20140;49.356;8.812;2023-02-15T08:08:43;43.53;;;25.35;;
33836;SDS011;20140;49.356;8.812;2023-02-15T08:13:59;43.55;;;25.45;;
33836;SDS011;20140;49.356;8.812;2023-02-15T08:16:32;39.65;;;25.73;;
33836;SDS011;20140;49.356;8.812;2023-02-15T08:21:33;46.50;;;26.50;;
33836;SDS011;20140;49.356;8.812;2023-02-15T08:24:00;50.28;;;26.02;;
33836;SDS011;20140;49.356;8.812;2023-02-15T08:26:27;50.08;;;26.65;;
33836;SDS011;20140;49.356;8.812;2023-02-15T08:28:54;52.38;;;29.25;;
33836;SDS011;20140;49.356;8.812;2023-02-15T08:31:19;52.53;;;28.70;;
33836;SDS011;20140;49.356;8.812;2023-02-15T08:33:45;47.85;;;28.98;;
33836;SDS011;20140;49.356;8.812;2023-02-15T08:36:14;49.65;;;29.75;;
33836;SDS011;20140;49.356;8.812;2023-02-15T08:38:41;57.30;;;30.20;;
33836;SDS011;20140;49.356;8.812;2023-02-15T08:41:15;50.93;;;28.33;;
33836;SDS011;20140;49.356;8.812;2023-02-15T08:43:44;54.05;;;29.92;;
33836;SDS011;20140;49.356;8.812;2023-02-15T08:46:12;53.60;;;29.77;;
33836;SDS011;20140;49.356;8.812;2023-02-15T08:48:38;51.15;;;28.23;;
33836;SDS011;20140;49.356;8.812;2023-02-15T08:51:09;52.67;;;29.92;;
33836;SDS011;20140;49.356;8.812;2023-02-15T08:53:37;47.22;;;27.95;;
33836;SDS011;20140;49.356;8.812;2023-02-15T08:56:03;49.72;;;26.35;;
33836;SDS011;20140;49.356;8.812;2023-02-15T08:58:29;44.70;;;27.20;;
33836;SDS011;20140;49.356;8.812;2023-02-15T09:00:55;45.67;;;28.15;;
33836;SDS011;20140;49.356;8.812;2023-02-15T09:03:21;46.58;;;27.10;;
33836;SDS011;20140;49.356;8.812;2023-02-15T09:05:47;46.80;;;26.90;;
33836;SDS011;20140;49.356;8.812;2023-02-15T09:08:13;43.22;;;25.35;;
33836;SDS011;20140;49.356;8.812;2023-02-15T09:10:38;45.63;;;26.20;;
33836;SDS011;20140;49.356;8.812;2023-02-15T09:13:04;42.30;;;26.20;;
33836;SDS011;20140;49.356;8.812;2023-02-15T09:15:29;41.37;;;24.93;;
33836;SDS011;20140;49.356;8.812;2023-02-15T09:17:55;43.25;;;26.30;;
33836;SDS011;20140;49.356;8.812;2023-02-15T09:20:21;44.08;;;25.23;;
33836;SDS011;20140;49.356;8.812;2023-02-15T09:22:47;41.28;;;24.85;;
33836;SDS011;20140;49.356;8.812;2023-02-15T09:25:12;43.57;;;26.00;;
33836;SDS011;20140;49.356;8.812;2023-02-15T09:27:38;44.22;;;25.85;;
33836;SDS011;20140;49.356;8.812;2023-02-15T09:30:04;42.08;;;27.30;;
33836;SDS011;20140;49.356;8.812;2023-02-15T09:32:30;42.17;;;25.50;;
33836;SDS011;20140;49.356;8.812;2023-02-15T09:34:56;42.03;;;25.30;;
33836;SDS011;20140;49.356;8.812;2023-02-15T09:37:21;42.50;;;24.48;;
33836;SDS011;20140;49.356;8.812;2023-02-15T09:39:47;35.40;;;22.27;;
33836;SDS011;20140;49.356;8.812;2023-02-15T09:45:06;45.30;;;26.77;;
33836;SDS011;20140;49.356;8.812;2023-02-15T09:48:02;39.08;;;25.30;;
33836;SDS011;20140;49.356;8.812;2023-02-15T09:50:42;39.70;;;24.08;;
33836;SDS011;20140;49.356;8.812;2023-02-15T09:56:05;44.38;;;26.50;;
33836;SDS011;20140;49.356;8.812;2023-02-15T10:06:54;51.13;;;29.20;;
33836;SDS011;20140;49.356;8.812;2023-02-15T10:09:59;49.67;;;29.13;;
33836;SDS011;20140;49.356;8.812;2023-02-15T10:12:49;49.92;;;31.30;;
33836;SDS011;20140;49.356;8.812;2023-02-15T10:15:30;47.88;;;28.85;;
33836;SDS011;20140;49.356;8.812;2023-02-15T10:18:14;43.67;;;25.83;;
33836;SDS011;20140;49.356;8.812;2023-02-15T10:21:19;42.28;;;25.58;;
33836;SDS011;20140;49.356;8.812;2023-02-15T10:26:43;43.65;;;25.35;;
33836;SDS011;20140;49.356;8.812;2023-02-15T10:29:14;36.88;;;23.85;;
33836;SDS011;20140;49.356;8.812;2023-02-15T10:35:01;33.95;;;21.75;;
33836;SDS011;20140;49.356;8.812;2023-02-15T10:37:46;36.78;;;22.02;;
33836;SDS011;20140;49.356;8.812;2023-02-15T10:46:02;35.78;;;22.63;;
33836;SDS011;20140;49.356;8.812;2023-02-15T10:54:36;33.70;;;21.65;;
33836;SDS011;20140;49.356;8.812;2023-02-15T10:57:09;34.40;;;21.10;;
33836;SDS011;20140;49.356;8.812;2023-02-15T10:59:46;35.65;;;22.23;;
33836;SDS011;20140;49.356;8.812;2023-02-15T11:07:34;38.33;;;22.67;;
33836;SDS011;20140;49.356;8.812;2023-02-15T11:12:41;32.05;;;21.48;;
33836;SDS011;20140;49.356;8.812;2023-02-15T11:18:26;37.63;;;23.70;;
33836;SDS011;20140;49.356;8.812;2023-02-15T11:20:57;38.55;;;24.13;;
33836;SDS011;20140;49.356;8.812;2023-02-15T11:23:43;36.47;;;22.20;;
33836;SDS011;20140;49.356;8.812;2023-02-15T11:26:25;43.08;;;24.73;;
33836;SDS011;20140;49.356;8.812;2023-02-15T11:31:59;36.80;;;23.23;;
33836;SDS011;20140;49.356;8.812;2023-02-15T11:34:56;38.47;;;25.08;;
33836;SDS011;20140;49.356;8.812;2023-02-15T11:37:35;37.53;;;23.98;;
33836;SDS011;20140;49.356;8.812;2023-02-15T11:42:57;50.30;;;29.63;;
33836;SDS011;20140;49.356;8.812;2023-02-15T11:45:29;40.50;;;26.07;;
33836;SDS011;20140;49.356;8.812;2023-02-15T11:47:56;40.38;;;25.27;;
33836;SDS011;20140;49.356;8.812;2023-02-15T11:50:24;36.65;;;24.17;;
33836;SDS011;20140;49.356;8.812;2023-02-15T11:52:52;41.80;;;26.83;;
33836;SDS011;20140;49.356;8.812;2023-02-15T11:55:22;36.15;;;23.50;;
33836;SDS011;20140;49.356;8.812;2023-02-15T12:00:40;42.67;;;25.60;;
33836;SDS011;20140;49.356;8.812;2023-02-15T12:03:17;41.07;;;25.20;;
33836;SDS011;20140;49.356;8.812;2023-02-15T12:05:48;38.55;;;26.50;;
33836;SDS011;20140;49.356;8.812;2023-02-15T12:08:21;39.60;;;25.33;;
33836;SDS011;20140;49.356;8.812;2023-02-15T12:13:16;39.00;;;26.02;;
33836;SDS011;20140;49.356;8.812;2023-02-15T12:15:44;42.70;;;27.13;;
33836;SDS011;20140;49.356;8.812;2023-02-15T12:18:17;42.53;;;26.03;;
33836;SDS011;20140;49.356;8.812;2023-02-15T12:21:05;39.42;;;25.95;;
33836;SDS011;20140;49.356;8.812;2023-02-15T12:23:41;45.00;;;27.45;;
33836;SDS011;20140;49.356;8.812;2023-02-15T12:26:13;37.63;;;23.90;;
33836;SDS011;20140;49.356;8.812;2023-02-15T12:28:40;36.67;;;24.95;;
33836;SDS011;20140;49.356;8.812;2023-02-15T12:31:31;36.85;;;23.95;;
33836;SDS011;20140;49.356;8.812;2023-02-15T12:34:02;34.78;;;24.45;;
33836;SDS011;20140;49.356;8.812;2023-02-15T12:36:43;35.15;;;23.25;;
33836;SDS011;20140;49.356;8.812;2023-02-15T12:41:45;63.03;;;36.95;;
33836;SDS011;20140;49.356;8.812;2023-02-15T12:44:23;48.00;;;30.80;;
33836;SDS011;20140;49.356;8.812;2023-02-15T12:49:30;30.93;;;22.30;;
33836;SDS011;20140;49.356;8.812;2023-02-15T12:54:45;34.95;;;23.70;;
33836;SDS011;20140;49.356;8.812;2023-02-15T13:05:32;40.08;;;26.45;;
33836;SDS011;20140;49.356;8.812;2023-02-15T13:10:40;34.65;;;23.83;;
33836;SDS011;20140;49.356;8.812;2023-02-15T13:13:18;35.60;;;22.90;;
33836;SDS011;20140;49.356;8.812;2023-02-15T13:15:48;30.15;;;22.65;;
33836;SDS011;20140;49.356;8.812;2023-02-15T13:18:17;30.17;;;22.17;;
33836;SDS011;20140;49.356;8.812;2023-02-15T13:20:51;32.90;;;22.73;;
33836;SDS011;20140;49.356;8.812;2023-02-15T13:23:25;31.17;;;22.85;;
33836;SDS011;20140;49.356;8.812;2023-02-15T13:25:52;30.42;;;22.50;;
33836;SDS011;20140;49.356;8.812;2023-02-15T13:28:25;33.47;;;22.60;;
33836;SDS011;20140;49.356;8.812;2023-02-15T13:31:13;26.70;;;19.92;;
33836;SDS011;20140;49.356;8.812;2023-02-15T13:33:43;30.25;;;21.63;;
33836;SDS011;20140;49.356;8.812;2023-02-15T13:38:46;28.23;;;20.73;;
33836;SDS011;20140;49.356;8.812;2023-02-15T13:41:22;29.05;;;20.67;;
33836;SDS011;20140;49.356;8.812;2023-02-15T13:44:15;26.08;;;18.73;;
33836;SDS011;20140;49.356;8.812;2023-02-15T13:47:12;26.20;;;19.80;;
33836;SDS011;20140;49.356;8.812;2023-02-15T13:52:31;25.30;;;18.17;;
33836;SDS011;20140;49.356;8.812;2023-02-15T14:06:59;26.45;;;18.30;;
33836;SDS011;20140;49.356;8.812;2023-02-15T14:15:12;26.48;;;20.67;;
33836;SDS011;20140;49.356;8.812;2023-02-15T14:17:55;25.98;;;19.70;;
33836;SDS011;20140;49.356;8.812;2023-02-15T14:20:34;23.87;;;18.07;;
33836;SDS011;20140;49.356;8.812;2023-02-15T14:23:15;24.75;;;18.15;;
33836;SDS011;20140;49.356;8.812;2023-02-15T14:25:54;23.50;;;17.63;;
33836;SDS011;20140;49.356;8.812;2023-02-15T14:28:36;21.92;;;16.90;;
33836;SDS011;20140;49.356;8.812;2023-02-15T14:31:06;21.13;;;16.87;;
33836;SDS011;20140;49.356;8.812;2023-02-15T14:33:40;22.50;;;16.85;;
33836;SDS011;20140;49.356;8.812;2023-02-15T14:36:09;22.50;;;17.27;;
33836;SDS011;20140;49.356;8.812;2023-02-15T14:38:54;20.30;;;16.67;;
33836;SDS011;20140;49.356;8.812;2023-02-15T14:41:53;21.40;;;17.38;;
33836;SDS011;20140;49.356;8.812;2023-02-15T14:44:30;23.05;;;17.17;;
33836;SDS011;20140;49.356;8.812;2023-02-15T14:47:04;23.98;;;17.52;;
33836;SDS011;20140;49.356;8.812;2023-02-15T14:49:39;25.75;;;18.67;;
33836;SDS011;20140;49.356;8.812;2023-02-15T15:02:21;22.73;;;18.10;;
33836;SDS011;20140;49.356;8.812;2023-02-15T15:08:17;23.15;;;17.88;;
33836;SDS011;20140;49.356;8.812;2023-02-15T15:13:57;23.50;;;17.60;;
33836;SDS011;20140;49.356;8.812;2023-02-15T15:18:52;25.42;;;18.70;;
33836;SDS011;20140;49.356;8.812;2023-02-15T15:21:51;23.67;;;17.15;;
33836;SDS011;20140;49.356;8.812;2023-02-15T15:35:27;22.65;;;16.92;;
33836;SDS011;20140;49.356;8.812;2023-02-15T15:46:43;25.02;;;17.65;;
33836;SDS011;20140;49.356;8.812;2023-02-15T15:49:23;23.50;;;18.13;;
33836;SDS011;20140;49.356;8.812;2023-02-15T15:51:53;22.23;;;18.30;;
33836;SDS011;20140;49.356;8.812;2023-02-15T15:56:56;23.75;;;18.20;;
33836;SDS011;20140;49.356;8.812;2023-02-15T15:59:32;20.87;;;16.00;;
33836;SDS011;20140;49.356;8.812;2023-02-15T16:02:06;21.45;;;16.08;;
33836;SDS011;20140;49.356;8.812;2023-02-15T16:04:36;22.67;;;16.48;;
33836;SDS011;20140;49.356;8.812;2023-02-15T16:07:20;21.00;;;15.93;;
33836;SDS011;20140;49.356;8.812;2023-02-15T16:09:54;23.73;;;17.45;;
33836;SDS011;20140;49.356;8.812;2023-02-15T16:12:28;24.13;;;17.60;;
33836;SDS011;20140;49.356;8.812;2023-02-15T16:14:55;25.10;;;17.73;;
33836;SDS011;20140;49.356;8.812;2023-02-15T16:17:25;22.20;;;17.15;;
33836;SDS011;20140;49.356;8.812;2023-02-15T16:20:06;24.50;;;17.65;;
33836;SDS011;20140;49.356;8.812;2023-02-15T16:22:40;25.60;;;17.80;;
33836;SDS011;20140;49.356;8.812;2023-02-15T16:28:05;22.33;;;17.58;;
33836;SDS011;20140;49.356;8.812;2023-02-15T16:30:33;24.55;;;18.85;;
33836;SDS011;20140;49.356;8.812;2023-02-15T16:33:05;24.30;;;18.70;;
33836;SDS011;20140;49.356;8.812;2023-02-15T16:35:31;25.67;;;18.67;;
33836;SDS011;20140;49.356;8.812;2023-02-15T16:37:57;26.02;;;19.42;;
33836;SDS011;20140;49.356;8.812;2023-02-15T16:42:49;23.20;;;17.63;;
33836;SDS011;20140;49.356;8.812;2023-02-15T16:45:35;23.15;;;17.45;;
33836;SDS011;20140;49.356;8.812;2023-02-15T16:48:05;26.45;;;17.27;;
33836;SDS011;20140;49.356;8.812;2023-02-15T16:50:36;26.38;;;17.52;;
33836;SDS011;20140;49.356;8.812;2023-02-15T16:53:03;25.08;;;19.25;;
33836;SDS011;20140;49.356;8.812;2023-02-15T16:55:34;25.25;;;17.20;;
33836;SDS011;20140;49.356;8.812;2023-02-15T16:58:02;23.90;;;17.92;;
33836;SDS011;20140;49.356;8.812;2023-02-15T17:00:39;23.90;;;17.77;;
33836;SDS011;20140;49.356;8.812;2023-02-15T17:08:14;26.67;;;20.02;;
33836;SDS011;20140;49.356;8.812;2023-02-15T17:10:42;27.83;;;19.05;;
33836;SDS011;20140;49.356;8.812;2023-02-15T17:13:12;27.23;;;19.10;;
33836;SDS011;20140;49.356;8.812;2023-02-15T17:18:24;23.00;;;17.60;;
33836;SDS011;20140;49.356;8.812;2023-02-15T17:21:10;26.10;;;19.15;;
33836;SDS011;20140;49.356;8.812;2023-02-15T17:23:48;29.20;;;18.88;;
33836;SDS011;20140;49.356;8.812;2023-02-15T17:26:16;28.77;;;20.27;;
33836;SDS011;20140;49.356;8.812;2023-02-15T17:28:45;26.55;;;18.75;;
33836;SDS011;20140;49.356;8.812;2023-02-15T17:31:13;26.40;;;19.35;;
33836;SDS011;20140;49.356;8.812;2023-02-15T17:33:42;27.85;;;19.17;;
33836;SDS011;20140;49.356;8.812;2023-02-15T17:41:21;28.52;;;19.50;;
33836;SDS011;20140;49.356;8.812;2023-02-15T17:43:50;26.80;;;18.93;;
33836;SDS011;20140;49.356;8.812;2023-02-15T17:46:16;29.27;;;19.30;;
33836;SDS011;20140;49.356;8.812;2023-02-15T17:48:45;29.42;;;19.60;;